sensor_id;sensor_type;location;lat;lon;timestamp;pressure;altitude;pressure_sealevel;temperature;humidity
706;BME280;21234;48.690;9.016;2022-10-16T00:01:34;96017.22;;;14.45;100.00
706;BME280;21234;48.690;9.016;2022-10-16T00:04:01;96021.03;;;14.44;100.00
706;BME280;21234;48.690;9.016;2022-10-16T00:06:28;96027.91;;;14.41;100.00
706;BME280;21234;48.690;9.016;2022-10-16T00:08:56;96027.31;;;14.39;100.00
706;BME280;21234;48.690;9.016;2022-10-16T00:11:24;96021.59;;;14.36;100.00
706;BME280;21234;48.690;9.016;2022-10-16T00:13:56;96018.63;;;14.27;100.00
706;BME280;21234;48.690;9.016;2022-10-16T00:16:23;96027.69;;;14.23;100.00
706;BME280;21234;48.690;9.016;2022-10-16T00:18:50;96034.53;;;14.20;100.00
706;BME280;21234;48.690;9.016;2022-10-16T00:21:18;96036.97;;;14.22;100.00
706;BME280;21234;48.690;9.016;2022-10-16T00:23:45;96032.34;;;14.17;100.00
706;BME280;21234;48.690;9.016;2022-10-16T00:26:14;96030.16;;;14.14;100.00
706;BME280;21234;48.690;9.016;2022-10-16T00:28:41;96024.69;;;14.14;100.00
706;BME280;21234;48.690;9.016;2022-10-16T00:31:10;96026.59;;;14.13;100.00
706;BME280;21234;48.690;9.016;2022-10-16T00:33:38;96025.50;;;14.15;100.00
706;BME280;21234;48.690;9.016;2022-10-16T00:36:07;96023.59;;;14.10;100.00
706;BME280;21234;48.690;9.016;2022-10-16T00:38:34;96018.41;;;14.08;100.00
706;BME280;21234;48.690;9.016;2022-10-16T00:41:01;96025.81;;;14.03;100.00
706;BME280;21234;48.690;9.016;2022-10-16T00:43:39;96024.44;;;14.00;100.00
706;BME280;21234;48.690;9.016;2022-10-16T00:46:14;96012.69;;;14.00;100.00
706;BME280;21234;48.690;9.016;2022-10-16T00:48:43;96017.63;;;13.98;100.00
706;BME280;21234;48.690;9.016;2022-10-16T00:51:11;96012.16;;;13.98;100.00
706;BME280;21234;48.690;9.016;2022-10-16T00:53:38;96026.41;;;13.95;100.00
706;BME280;21234;48.690;9.016;2022-10-16T00:56:06;96032.16;;;13.93;100.00
706;BME280;21234;48.690;9.016;2022-10-16T00:58:32;96041.44;;;13.92;100.00
706;BME280;21234;48.690;9.016;2022-10-16T01:00:59;96040.59;;;13.97;100.00
706;BME280;21234;48.690;9.016;2022-10-16T01:03:30;96037.56;;;13.98;100.00
706;BME280;21234;48.690;9.016;2022-10-16T01:06:11;96047.41;;;13.99;100.00
706;BME280;21234;48.690;9.016;2022-10-16T01:08:49;96048.50;;;13.98;100.00
706;BME280;21234;48.690;9.016;2022-10-16T01:11:25;96053.69;;;14.00;100.00
706;BME280;21234;48.690;9.016;2022-10-16T01:13:56;96057.25;;;14.00;100.00
706;BME280;21234;48.690;9.016;2022-10-16T01:16:29;96054.50;;;14.00;100.00
706;BME280;21234;48.690;9.016;2022-10-16T01:19:05;96044.66;;;14.04;100.00
706;BME280;21234;48.690;9.016;2022-10-16T01:21:36;96042.22;;;14.03;100.00
706;BME280;21234;48.690;9.016;2022-10-16T01:24:11;96031.81;;;14.05;100.00
706;BME280;21234;48.690;9.016;2022-10-16T01:26:56;96038.38;;;14.04;100.00
706;BME280;21234;48.690;9.016;2022-10-16T01:29:26;96044.94;;;14.03;100.00
706;BME280;21234;48.690;9.016;2022-10-16T01:31:59;96038.66;;;14.02;100.00
706;BME280;21234;48.690;9.016;2022-10-16T01:34:32;96036.19;;;14.01;100.00
706;BME280;21234;48.690;9.016;2022-10-16T01:37:05;96034.28;;;14.01;100.00
706;BME280;21234;48.690;9.016;2022-10-16T01:39:36;96029.63;;;14.07;100.00
706;BME280;21234;48.690;9.016;2022-10-16T01:42:11;96033.72;;;14.09;100.00
706;BME280;21234;48.690;9.016;2022-10-16T01:44:39;96035.91;;;14.07;100.00
706;BME280;21234;48.690;9.016;2022-10-16T01:47:09;96038.66;;;14.07;100.00
706;BME280;21234;48.690;9.016;2022-10-16T01:49:38;96026.63;;;14.08;100.00
706;BME280;21234;48.690;9.016;2022-10-16T01:52:09;96028.25;;;14.09;100.00
706;BME280;21234;48.690;9.016;2022-10-16T01:54:39;96024.72;;;14.04;100.00
706;BME280;21234;48.690;9.016;2022-10-16T01:57:10;96025.81;;;14.08;100.00
706;BME280;21234;48.690;9.016;2022-10-16T01:59:42;96021.72;;;14.05;100.00
706;BME280;21234;48.690;9.016;2022-10-16T02:02:11;96018.97;;;14.05;100.00
706;BME280;21234;48.690;9.016;2022-10-16T02:04:40;96018.97;;;14.05;100.00
706;BME280;21234;48.690;9.016;2022-10-16T02:07:10;96027.16;;;14.05;100.00
706;BME280;21234;48.690;9.016;2022-10-16T02:09:37;96034.28;;;14.06;100.00
706;BME280;21234;48.690;9.016;2022-10-16T02:12:10;96030.16;;;14.09;100.00
706;BME280;21234;48.690;9.016;2022-10-16T02:14:39;96037.81;;;14.07;100.00
706;BME280;21234;48.690;9.016;2022-10-16T02:17:10;96038.66;;;14.07;100.00
706;BME280;21234;48.690;9.016;2022-10-16T02:19:37;96043.84;;;14.09;100.00
706;BME280;21234;48.690;9.016;2022-10-16T02:22:08;96041.38;;;14.07;100.00
706;BME280;21234;48.690;9.016;2022-10-16T02:24:39;96033.16;;;14.12;100.00
706;BME280;21234;48.690;9.016;2022-10-16T02:27:11;96033.16;;;14.18;100.00
706;BME280;21234;48.690;9.016;2022-10-16T02:29:42;96023.59;;;14.20;100.00
706;BME280;21234;48.690;9.016;2022-10-16T02:32:12;96023.28;;;14.27;100.00
706;BME280;21234;48.690;9.016;2022-10-16T02:34:40;96019.69;;;14.31;100.00
706;BME280;21234;48.690;9.016;2022-10-16T02:37:08;96021.06;;;14.34;100.00
706;BME280;21234;48.690;9.016;2022-10-16T02:39:36;96018.84;;;14.36;100.00
706;BME280;21234;48.690;9.016;2022-10-16T02:42:03;96018.31;;;14.34;100.00
706;BME280;21234;48.690;9.016;2022-10-16T02:44:31;96028.16;;;14.35;100.00
706;BME280;21234;48.690;9.016;2022-10-16T02:46:58;96037.72;;;14.32;100.00
706;BME280;21234;48.690;9.016;2022-10-16T02:49:25;96033.38;;;14.31;100.00
706;BME280;21234;48.690;9.016;2022-10-16T02:51:51;96038.00;;;14.31;100.00
706;BME280;21234;48.690;9.016;2022-10-16T02:54:18;96039.69;;;14.27;100.00
706;BME280;21234;48.690;9.016;2022-10-16T02:56:45;96044.06;;;14.28;100.00
706;BME280;21234;48.690;9.016;2022-10-16T02:59:12;96038.06;;;14.26;100.00
706;BME280;21234;48.690;9.016;2022-10-16T03:01:40;96046.81;;;14.23;100.00
706;BME280;21234;48.690;9.016;2022-10-16T03:04:06;96043.53;;;14.21;100.00
706;BME280;21234;48.690;9.016;2022-10-16T03:06:34;96047.63;;;14.23;100.00
706;BME280;21234;48.690;9.016;2022-10-16T03:09:01;96045.19;;;14.22;100.00
706;BME280;21234;48.690;9.016;2022-10-16T03:11:28;96045.19;;;14.22;100.00
706;BME280;21234;48.690;9.016;2022-10-16T03:13:55;96036.97;;;14.22;100.00
706;BME280;21234;48.690;9.016;2022-10-16T03:16:21;96038.63;;;14.18;100.00
706;BME280;21234;48.690;9.016;2022-10-16T03:18:49;96035.34;;;14.16;100.00
706;BME280;21234;48.690;9.016;2022-10-16T03:21:16;96043.00;;;14.13;100.00
706;BME280;21234;48.690;9.016;2022-10-16T03:23:43;96047.09;;;14.16;100.00
706;BME280;21234;48.690;9.016;2022-10-16T03:26:10;96043.28;;;14.17;100.00
706;BME280;21234;48.690;9.016;2022-10-16T03:28:36;96046.28;;;14.16;100.00
706;BME280;21234;48.690;9.016;2022-10-16T03:31:03;96044.91;;;14.18;100.00
706;BME280;21234;48.690;9.016;2022-10-16T03:33:30;96055.28;;;14.21;100.00
706;BME280;21234;48.690;9.016;2022-10-16T03:35:58;96052.28;;;14.18;100.00
706;BME280;21234;48.690;9.016;2022-10-16T03:38:25;96040.53;;;14.17;100.00
706;BME280;21234;48.690;9.016;2022-10-16T03:40:52;96052.56;;;14.16;100.00
706;BME280;21234;48.690;9.016;2022-10-16T03:43:18;96049.56;;;14.18;100.00
706;BME280;21234;48.690;9.016;2022-10-16T03:45:45;96054.50;;;14.16;100.00
706;BME280;21234;48.690;9.016;2022-10-16T03:48:12;96058.88;;;14.11;100.00
706;BME280;21234;48.690;9.016;2022-10-16T03:50:39;96065.69;;;14.09;100.00
706;BME280;21234;48.690;9.016;2022-10-16T03:53:07;96069.25;;;14.09;100.00
706;BME280;21234;48.690;9.016;2022-10-16T03:55:34;96061.31;;;14.13;100.00
706;BME280;21234;48.690;9.016;2022-10-16T03:58:01;96058.59;;;14.13;100.00
706;BME280;21234;48.690;9.016;2022-10-16T04:00:28;96059.69;;;14.12;100.00
706;BME280;21234;48.690;9.016;2022-10-16T04:02:55;96060.50;;;14.07;100.00
706;BME280;21234;48.690;9.016;2022-10-16T04:05:21;96065.44;;;14.10;100.00
706;BME280;21234;48.690;9.016;2022-10-16T04:07:48;96059.16;;;14.05;100.00
706;BME280;21234;48.690;9.016;2022-10-16T04:10:16;96059.69;;;14.07;100.00
706;BME280;21234;48.690;9.016;2022-10-16T04:12:43;96057.22;;;14.05;100.00
706;BME280;21234;48.690;9.016;2022-10-16T04:15:10;96060.25;;;13.99;100.00
706;BME280;21234;48.690;9.016;2022-10-16T04:17:36;96062.47;;;13.97;100.00
706;BME280;21234;48.690;9.016;2022-10-16T04:20:04;96054.56;;;13.95;100.00
706;BME280;21234;48.690;9.016;2022-10-16T04:22:31;96059.44;;;13.98;100.00
706;BME280;21234;48.690;9.016;2022-10-16T04:24:58;96052.91;;;13.89;100.00
706;BME280;21234;48.690;9.016;2022-10-16T04:27:26;96061.13;;;13.89;100.00
706;BME280;21234;48.690;9.016;2022-10-16T04:29:53;96048.00;;;13.91;100.00
706;BME280;21234;48.690;9.016;2022-10-16T04:32:20;96050.72;;;13.91;100.00
706;BME280;21234;48.690;9.016;2022-10-16T04:34:46;96054.00;;;13.93;100.00
706;BME280;21234;48.690;9.016;2022-10-16T04:37:13;96054.28;;;13.92;100.00
706;BME280;21234;48.690;9.016;2022-10-16T04:39:40;96065.22;;;13.92;100.00
706;BME280;21234;48.690;9.016;2022-10-16T04:42:07;96067.38;;;13.95;100.00
706;BME280;21234;48.690;9.016;2022-10-16T04:44:35;96064.94;;;13.93;100.00
706;BME280;21234;48.690;9.016;2022-10-16T04:47:01;96058.09;;;13.96;100.00
706;BME280;21234;48.690;9.016;2022-10-16T04:49:28;96061.38;;;13.93;100.00
706;BME280;21234;48.690;9.016;2022-10-16T04:51:55;96069.31;;;13.94;100.00
706;BME280;21234;48.690;9.016;2022-10-16T04:54:21;96075.88;;;13.93;100.00
706;BME280;21234;48.690;9.016;2022-10-16T04:56:48;96085.97;;;13.93;100.00
706;BME280;21234;48.690;9.016;2022-10-16T04:59:17;96085.69;;;13.94;100.00
706;BME280;21234;48.690;9.016;2022-10-16T05:01:45;96086.78;;;13.93;100.00
706;BME280;21234;48.690;9.016;2022-10-16T05:04:12;96084.63;;;13.90;100.00
706;BME280;21234;48.690;9.016;2022-10-16T05:06:40;96090.63;;;13.92;100.00
706;BME280;21234;48.690;9.016;2022-10-16T05:09:07;96095.00;;;13.93;100.00
706;BME280;21234;48.690;9.016;2022-10-16T05:11:35;96089.81;;;13.92;100.00
706;BME280;21234;48.690;9.016;2022-10-16T05:14:02;96082.44;;;13.92;100.00
706;BME280;21234;48.690;9.016;2022-10-16T05:16:28;96084.63;;;13.90;100.00
706;BME280;21234;48.690;9.016;2022-10-16T05:18:56;96080.25;;;13.89;100.00
706;BME280;21234;48.690;9.016;2022-10-16T05:21:23;96081.88;;;13.85;100.00
706;BME280;21234;48.690;9.016;2022-10-16T05:23:50;96085.72;;;13.79;100.00
706;BME280;21234;48.690;9.016;2022-10-16T05:26:17;96079.69;;;13.72;100.00
706;BME280;21234;48.690;9.016;2022-10-16T05:28:43;96085.72;;;13.74;100.00
706;BME280;21234;48.690;9.016;2022-10-16T05:31:10;96084.63;;;13.75;100.00
706;BME280;21234;48.690;9.016;2022-10-16T05:33:37;96096.09;;;13.72;100.00
706;BME280;21234;48.690;9.016;2022-10-16T05:36:07;96095.84;;;13.63;100.00
706;BME280;21234;48.690;9.016;2022-10-16T05:38:36;96101.00;;;13.70;100.00
706;BME280;21234;48.690;9.016;2022-10-16T05:41:03;96095.25;;;13.66;100.00
706;BME280;21234;48.690;9.016;2022-10-16T05:43:31;96095.53;;;13.65;100.00
706;BME280;21234;48.690;9.016;2022-10-16T05:46:00;96104.84;;;13.69;100.00
706;BME280;21234;48.690;9.016;2022-10-16T05:48:27;96101.28;;;13.73;100.00
706;BME280;21234;48.690;9.016;2022-10-16T05:50:58;96101.81;;;13.75;100.00
706;BME280;21234;48.690;9.016;2022-10-16T05:53:27;96095.53;;;13.80;100.00
706;BME280;21234;48.690;9.016;2022-10-16T05:55:54;96114.41;;;13.82;100.00
706;BME280;21234;48.690;9.016;2022-10-16T05:58:21;96104.84;;;13.84;100.00
706;BME280;21234;48.690;9.016;2022-10-16T06:00:55;96116.59;;;13.90;100.00
706;BME280;21234;48.690;9.016;2022-10-16T06:03:22;96120.94;;;13.86;100.00
706;BME280;21234;48.690;9.016;2022-10-16T06:05:49;96115.22;;;13.92;100.00
706;BME280;21234;48.690;9.016;2022-10-16T06:08:16;96124.50;;;13.96;100.00
706;BME280;21234;48.690;9.016;2022-10-16T06:10:45;96119.00;;;14.01;100.00
706;BME280;21234;48.690;9.016;2022-10-16T06:13:12;96127.47;;;14.00;100.00
706;BME280;21234;48.690;9.016;2022-10-16T06:15:40;96131.84;;;14.01;100.00
706;BME280;21234;48.690;9.016;2022-10-16T06:18:08;96129.66;;;14.08;100.00
706;BME280;21234;48.690;9.016;2022-10-16T06:20:35;96134.03;;;14.09;100.00
706;BME280;21234;48.690;9.016;2022-10-16T06:23:02;96132.13;;;14.15;100.00
706;BME280;21234;48.690;9.016;2022-10-16T06:25:29;96132.13;;;14.15;100.00
706;BME280;21234;48.690;9.016;2022-10-16T06:27:57;96129.13;;;14.16;100.00
706;BME280;21234;48.690;9.016;2022-10-16T06:30:24;96132.38;;;14.23;100.00
706;BME280;21234;48.690;9.016;2022-10-16T06:32:50;96129.09;;;14.26;100.00
706;BME280;21234;48.690;9.016;2022-10-16T06:35:17;96136.16;;;14.32;100.00
706;BME280;21234;48.690;9.016;2022-10-16T06:37:44;96141.91;;;14.36;100.00
706;BME280;21234;48.690;9.016;2022-10-16T06:40:11;96150.13;;;14.41;100.00
706;BME280;21234;48.690;9.016;2022-10-16T06:42:39;96150.94;;;14.47;100.00
706;BME280;21234;48.690;9.016;2022-10-16T06:45:09;96152.88;;;14.46;100.00
706;BME280;21234;48.690;9.016;2022-10-16T06:47:35;96159.16;;;14.52;100.00
706;BME280;21234;48.690;9.016;2022-10-16T06:50:03;96162.16;;;14.55;100.00
706;BME280;21234;48.690;9.016;2022-10-16T06:52:31;96161.88;;;14.57;100.00
706;BME280;21234;48.690;9.016;2022-10-16T06:54:58;96169.25;;;14.56;100.00
706;BME280;21234;48.690;9.016;2022-10-16T06:57:25;96163.78;;;14.61;100.00
706;BME280;21234;48.690;9.016;2022-10-16T06:59:52;96167.56;;;14.65;100.00
706;BME280;21234;48.690;9.016;2022-10-16T07:02:20;96168.91;;;14.73;100.00
706;BME280;21234;48.690;9.016;2022-10-16T07:04:47;96179.59;;;14.74;100.00
706;BME280;21234;48.690;9.016;2022-10-16T07:07:13;96182.88;;;14.76;100.00
706;BME280;21234;48.690;9.016;2022-10-16T07:09:40;96185.03;;;14.79;100.00
706;BME280;21234;48.690;9.016;2022-10-16T07:12:07;96195.44;;;14.83;100.00
706;BME280;21234;48.690;9.016;2022-10-16T07:14:34;96199.81;;;14.84;100.00
706;BME280;21234;48.690;9.016;2022-10-16T07:17:00;96204.47;;;14.83;100.00
706;BME280;21234;48.690;9.016;2022-10-16T07:19:28;96211.31;;;14.81;100.00
706;BME280;21234;48.690;9.016;2022-10-16T07:21:55;96209.94;;;14.78;100.00
706;BME280;21234;48.690;9.016;2022-10-16T07:24:22;96226.38;;;14.78;100.00
706;BME280;21234;48.690;9.016;2022-10-16T07:26:49;96222.53;;;14.79;100.00
706;BME280;21234;48.690;9.016;2022-10-16T07:29:18;96221.16;;;14.82;100.00
706;BME280;21234;48.690;9.016;2022-10-16T07:31:45;96221.44;;;14.85;100.00
706;BME280;21234;48.690;9.016;2022-10-16T07:34:13;96224.72;;;14.87;100.00
706;BME280;21234;48.690;9.016;2022-10-16T07:36:42;96214.56;;;14.93;100.00
706;BME280;21234;48.690;9.016;2022-10-16T07:39:08;96230.41;;;14.96;100.00
706;BME280;21234;48.690;9.016;2022-10-16T07:41:35;96222.47;;;14.99;100.00
706;BME280;21234;48.690;9.016;2022-10-16T07:44:03;96233.13;;;15.01;100.00
706;BME280;21234;48.690;9.016;2022-10-16T07:46:30;96231.47;;;15.05;100.00
706;BME280;21234;48.690;9.016;2022-10-16T07:48:59;96230.38;;;15.11;100.00
706;BME280;21234;48.690;9.016;2022-10-16T07:51:26;96241.31;;;15.11;100.00
706;BME280;21234;48.690;9.016;2022-10-16T07:53:55;96245.41;;;15.13;100.00
706;BME280;21234;48.690;9.016;2022-10-16T07:56:22;96244.03;;;15.16;100.00
706;BME280;21234;48.690;9.016;2022-10-16T07:58:50;96247.31;;;15.18;100.00
706;BME280;21234;48.690;9.016;2022-10-16T08:01:17;96251.69;;;15.24;100.00
706;BME280;21234;48.690;9.016;2022-10-16T08:03:46;96244.25;;;15.30;100.00
706;BME280;21234;48.690;9.016;2022-10-16T08:06:13;96252.19;;;15.31;100.00
706;BME280;21234;48.690;9.016;2022-10-16T08:08:39;96242.84;;;15.37;98.77
706;BME280;21234;48.690;9.016;2022-10-16T08:11:08;96254.88;;;15.41;98.66
706;BME280;21234;48.690;9.016;2022-10-16T08:13:34;96255.94;;;15.51;98.91
706;BME280;21234;48.690;9.016;2022-10-16T08:16:01;96263.63;;;15.59;98.81
706;BME280;21234;48.690;9.016;2022-10-16T08:18:29;96264.91;;;15.66;97.60
706;BME280;21234;48.690;9.016;2022-10-16T08:20:56;96251.41;;;15.80;97.46
706;BME280;21234;48.690;9.016;2022-10-16T08:23:23;96259.31;;;15.92;96.30
706;BME280;21234;48.690;9.016;2022-10-16T08:25:51;96265.50;;;16.07;94.56
706;BME280;21234;48.690;9.016;2022-10-16T08:28:20;96259.44;;;16.10;93.82
706;BME280;21234;48.690;9.016;2022-10-16T08:30:48;96258.06;;;16.13;94.49
706;BME280;21234;48.690;9.016;2022-10-16T08:33:15;96266.59;;;16.06;94.62
706;BME280;21234;48.690;9.016;2022-10-16T08:35:42;96269.06;;;16.08;94.78
706;BME280;21234;48.690;9.016;2022-10-16T08:38:09;96273.19;;;16.05;93.77
706;BME280;21234;48.690;9.016;2022-10-16T08:40:36;96272.09;;;16.01;94.38
706;BME280;21234;48.690;9.016;2022-10-16T08:43:21;96275.09;;;16.05;94.10
706;BME280;21234;48.690;9.016;2022-10-16T08:46:13;96276.19;;;16.04;94.63
706;BME280;21234;48.690;9.016;2022-10-16T08:48:45;96281.16;;;16.02;94.23
706;BME280;21234;48.690;9.016;2022-10-16T08:51:19;96295.94;;;16.06;95.16
706;BME280;21234;48.690;9.016;2022-10-16T08:53:50;96293.97;;;16.11;96.11
706;BME280;21234;48.690;9.016;2022-10-16T08:56:19;96290.06;;;16.23;95.19
706;BME280;21234;48.690;9.016;2022-10-16T08:58:47;96294.38;;;16.34;94.32
706;BME280;21234;48.690;9.016;2022-10-16T09:01:17;96294.78;;;16.51;95.10
706;BME280;21234;48.690;9.016;2022-10-16T09:04:05;96296.59;;;16.61;92.98
706;BME280;21234;48.690;9.016;2022-10-16T09:06:46;96300.03;;;16.82;91.88
706;BME280;21234;48.690;9.016;2022-10-16T09:09:30;96294.91;;;16.99;89.73
706;BME280;21234;48.690;9.016;2022-10-16T09:12:04;96284.75;;;17.23;87.42
706;BME280;21234;48.690;9.016;2022-10-16T09:14:55;96292.66;;;17.54;86.52
706;BME280;21234;48.690;9.016;2022-10-16T09:17:33;96297.78;;;18.03;85.67
706;BME280;21234;48.690;9.016;2022-10-16T09:20:19;96297.63;;;18.51;82.39
706;BME280;21234;48.690;9.016;2022-10-16T09:22:46;96300.06;;;18.71;79.14
706;BME280;21234;48.690;9.016;2022-10-16T09:25:15;96304.69;;;18.89;79.25
706;BME280;21234;48.690;9.016;2022-10-16T09:27:43;96304.13;;;19.06;77.45
706;BME280;21234;48.690;9.016;2022-10-16T09:30:15;96310.69;;;19.10;77.75
706;BME280;21234;48.690;9.016;2022-10-16T09:32:43;96305.00;;;18.88;76.79
706;BME280;21234;48.690;9.016;2022-10-16T09:35:16;96303.88;;;18.75;79.47
706;BME280;21234;48.690;9.016;2022-10-16T09:37:45;96311.41;;;18.51;77.41
706;BME280;21234;48.690;9.016;2022-10-16T09:40:23;96308.94;;;18.30;76.80
706;BME280;21234;48.690;9.016;2022-10-16T09:42:53;96304.31;;;18.26;77.67
706;BME280;21234;48.690;9.016;2022-10-16T09:45:23;96307.97;;;18.40;79.01
706;BME280;21234;48.690;9.016;2022-10-16T09:47:51;96303.00;;;18.42;78.18
706;BME280;21234;48.690;9.016;2022-10-16T09:50:23;96310.34;;;18.46;78.67
706;BME280;21234;48.690;9.016;2022-10-16T09:53:03;96314.63;;;18.53;77.07
706;BME280;21234;48.690;9.016;2022-10-16T09:55:30;96322.19;;;18.66;76.29
706;BME280;21234;48.690;9.016;2022-10-16T09:57:56;96312.03;;;18.80;78.33
706;BME280;21234;48.690;9.016;2022-10-16T10:00:25;96312.75;;;18.86;74.06
706;BME280;21234;48.690;9.016;2022-10-16T10:02:52;96318.13;;;19.09;72.84
706;BME280;21234;48.690;9.016;2022-10-16T10:05:21;96321.34;;;19.44;72.40
706;BME280;21234;48.690;9.016;2022-10-16T10:07:54;96321.75;;;19.92;71.63
706;BME280;21234;48.690;9.016;2022-10-16T10:10:24;96324.25;;;20.43;69.42
706;BME280;21234;48.690;9.016;2022-10-16T10:12:52;96321.28;;;20.62;65.95
706;BME280;21234;48.690;9.016;2022-10-16T10:15:19;96327.00;;;20.88;69.60
706;BME280;21234;48.690;9.016;2022-10-16T10:17:50;96328.94;;;20.65;64.26
706;BME280;21234;48.690;9.016;2022-10-16T10:20:24;96331.00;;;20.37;64.84
706;BME280;21234;48.690;9.016;2022-10-16T10:22:51;96325.97;;;20.26;64.48
706;BME280;21234;48.690;9.016;2022-10-16T10:25:38;96329.34;;;20.23;67.55
706;BME280;21234;48.690;9.016;2022-10-16T10:28:26;96328.59;;;20.08;65.51
706;BME280;21234;48.690;9.016;2022-10-16T10:31:00;96330.84;;;20.06;64.96
706;BME280;21234;48.690;9.016;2022-10-16T10:33:39;96330.22;;;20.09;66.24
706;BME280;21234;48.690;9.016;2022-10-16T10:36:18;96321.81;;;20.14;66.80
706;BME280;21234;48.690;9.016;2022-10-16T10:38:50;96329.03;;;20.24;67.08
706;BME280;21234;48.690;9.016;2022-10-16T10:44:22;96328.50;;;19.86;66.69
706;BME280;21234;48.690;9.016;2022-10-16T10:46:56;96324.63;;;19.73;67.05
706;BME280;21234;48.690;9.016;2022-10-16T10:49:43;96332.00;;;19.64;65.49
706;BME280;21234;48.690;9.016;2022-10-16T10:52:29;96338.09;;;19.61;67.12
706;BME280;21234;48.690;9.016;2022-10-16T10:55:03;96337.09;;;19.71;68.24
706;BME280;21234;48.690;9.016;2022-10-16T10:57:41;96335.66;;;19.87;67.78
706;BME280;21234;48.690;9.016;2022-10-16T11:00:20;96335.66;;;20.01;65.40
706;BME280;21234;48.690;9.016;2022-10-16T11:02:55;96338.34;;;20.28;67.68
706;BME280;21234;48.690;9.016;2022-10-16T11:05:33;96328.00;;;20.34;68.45
706;BME280;21234;48.690;9.016;2022-10-16T11:08:10;96334.25;;;20.26;68.47
706;BME280;21234;48.690;9.016;2022-10-16T11:10:44;96335.81;;;20.18;66.60
706;BME280;21234;48.690;9.016;2022-10-16T11:13:21;96331.53;;;20.12;65.58
706;BME280;21234;48.690;9.016;2022-10-16T11:15:51;96336.56;;;20.10;66.68
706;BME280;21234;48.690;9.016;2022-10-16T11:18:22;96336.41;;;20.15;67.60
706;BME280;21234;48.690;9.016;2022-10-16T11:20:56;96328.44;;;20.27;69.29
706;BME280;21234;48.690;9.016;2022-10-16T11:23:28;96334.03;;;20.36;69.01
706;BME280;21234;48.690;9.016;2022-10-16T11:25:59;96330.78;;;20.34;67.89
706;BME280;21234;48.690;9.016;2022-10-16T11:28:29;96328.25;;;20.37;69.39
706;BME280;21234;48.690;9.016;2022-10-16T11:31:00;96326.56;;;20.36;69.06
706;BME280;21234;48.690;9.016;2022-10-16T11:33:32;96327.13;;;20.38;69.60
706;BME280;21234;48.690;9.016;2022-10-16T11:36:07;96330.16;;;20.37;66.32
706;BME280;21234;48.690;9.016;2022-10-16T11:38:41;96326.38;;;20.33;68.22
706;BME280;21234;48.690;9.016;2022-10-16T11:41:15;96324.22;;;20.30;67.16
706;BME280;21234;48.690;9.016;2022-10-16T11:43:49;96325.56;;;20.32;66.39
706;BME280;21234;48.690;9.016;2022-10-16T11:46:21;96316.88;;;20.25;67.11
706;BME280;21234;48.690;9.016;2022-10-16T11:48:55;96316.78;;;20.17;68.25
706;BME280;21234;48.690;9.016;2022-10-16T11:51:32;96306.78;;;20.21;68.95
706;BME280;21234;48.690;9.016;2022-10-16T11:54:05;96308.06;;;20.37;65.23
706;BME280;21234;48.690;9.016;2022-10-16T11:56:38;96309.09;;;20.41;65.71
706;BME280;21234;48.690;9.016;2022-10-16T11:59:11;96299.44;;;20.52;65.82
706;BME280;21234;48.690;9.016;2022-10-16T12:01:46;96311.25;;;20.66;63.95
706;BME280;21234;48.690;9.016;2022-10-16T12:04:21;96306.25;;;20.68;62.14
706;BME280;21234;48.690;9.016;2022-10-16T12:06:55;96300.44;;;20.56;64.87
706;BME280;21234;48.690;9.016;2022-10-16T12:09:26;96302.78;;;20.63;65.17
706;BME280;21234;48.690;9.016;2022-10-16T12:11:53;96304.59;;;20.90;61.20
706;BME280;21234;48.690;9.016;2022-10-16T12:14:33;96303.00;;;20.97;61.41
706;BME280;21234;48.690;9.016;2022-10-16T12:17:03;96309.53;;;21.01;60.13
706;BME280;21234;48.690;9.016;2022-10-16T12:19:32;96311.50;;;21.01;58.59
706;BME280;21234;48.690;9.016;2022-10-16T12:22:02;96302.75;;;21.07;61.41
706;BME280;21234;48.690;9.016;2022-10-16T12:24:37;96314.81;;;21.11;62.24
706;BME280;21234;48.690;9.016;2022-10-16T12:27:06;96324.28;;;21.19;59.62
706;BME280;21234;48.690;9.016;2022-10-16T12:29:46;96321.47;;;21.33;57.59
706;BME280;21234;48.690;9.016;2022-10-16T12:32:25;96316.94;;;21.45;58.91
706;BME280;21234;48.690;9.016;2022-10-16T12:34:53;96318.94;;;21.54;56.53
706;BME280;21234;48.690;9.016;2022-10-16T12:37:24;96315.75;;;21.69;57.83
706;BME280;21234;48.690;9.016;2022-10-16T12:39:53;96318.16;;;21.62;57.25
706;BME280;21234;48.690;9.016;2022-10-16T12:42:23;96318.56;;;21.46;59.07
706;BME280;21234;48.690;9.016;2022-10-16T12:44:57;96312.78;;;21.26;54.78
706;BME280;21234;48.690;9.016;2022-10-16T12:47:36;96317.41;;;21.17;57.54
706;BME280;21234;48.690;9.016;2022-10-16T12:50:21;96318.03;;;21.05;57.03
706;BME280;21234;48.690;9.016;2022-10-16T12:52:50;96307.72;;;20.97;58.21
706;BME280;21234;48.690;9.016;2022-10-16T12:55:18;96315.63;;;20.90;57.91
706;BME280;21234;48.690;9.016;2022-10-16T12:57:57;96323.53;;;20.83;57.70
706;BME280;21234;48.690;9.016;2022-10-16T13:00:32;96320.44;;;20.75;59.99
706;BME280;21234;48.690;9.016;2022-10-16T13:03:30;96321.88;;;20.73;59.59
706;BME280;21234;48.690;9.016;2022-10-16T13:06:09;96324.81;;;20.76;58.91
706;BME280;21234;48.690;9.016;2022-10-16T13:08:52;96325.19;;;20.84;57.41
706;BME280;21234;48.690;9.016;2022-10-16T13:11:27;96331.72;;;20.88;57.91
706;BME280;21234;48.690;9.016;2022-10-16T13:14:18;96335.78;;;20.90;59.79
706;BME280;21234;48.690;9.016;2022-10-16T13:16:55;96337.13;;;20.93;61.08
706;BME280;21234;48.690;9.016;2022-10-16T13:19:33;96332.66;;;21.05;61.59
706;BME280;21234;48.690;9.016;2022-10-16T13:22:06;96333.69;;;21.18;60.33
706;BME280;21234;48.690;9.016;2022-10-16T13:24:52;96341.78;;;21.68;61.19
706;BME280;21234;48.690;9.016;2022-10-16T13:27:29;96331.38;;;22.22;55.31
706;BME280;21234;48.690;9.016;2022-10-16T13:30:02;96328.47;;;22.27;58.67
706;BME280;21234;48.690;9.016;2022-10-16T13:32:36;96332.66;;;22.16;55.18
706;BME280;21234;48.690;9.016;2022-10-16T13:35:19;96325.56;;;22.66;54.62